sensor_id;sensor_type;location;lat;lon;timestamp;pressure;altitude;pressure_sealevel;temperature;humidity
54546;BME280;40444;45.184;9.850;2023-01-13T00:01:30;101394.78;;;4.64;100.00
54546;BME280;40444;45.184;9.850;2023-01-13T00:03:59;101391.38;;;4.62;100.00
54546;BME280;40444;45.184;9.850;2023-01-13T00:06:28;101399.44;;;4.60;100.00
54546;BME280;40444;45.184;9.850;2023-01-13T00:08:57;101403.00;;;4.59;100.00
54546;BME280;40444;45.184;9.850;2023-01-13T00:11:26;101406.59;;;4.58;100.00
54546;BME280;40444;45.184;9.850;2023-01-13T00:13:54;101409.25;;;4.58;100.00
54546;BME280;40444;45.184;9.850;2023-01-13T00:16:23;101399.66;;;4.55;100.00
54546;BME280;40444;45.184;9.850;2023-01-13T00:18:52;101398.00;;;4.53;100.00
54546;BME280;40444;45.184;9.850;2023-01-13T00:21:22;101392.00;;;4.49;100.00
54546;BME280;40444;45.184;9.850;2023-01-13T00:23:53;101375.31;;;4.47;100.00
54546;BME280;40444;45.184;9.850;2023-01-13T00:26:24;101382.41;;;4.47;100.00
54546;BME280;40444;45.184;9.850;2023-01-13T00:28:57;101385.31;;;4.42;100.00
54546;BME280;40444;45.184;9.850;2023-01-13T00:31:27;101384.50;;;4.40;100.00
54546;BME280;40444;45.184;9.850;2023-01-13T00:33:58;101376.56;;;4.40;100.00
54546;BME280;40444;45.184;9.850;2023-01-13T00:36:28;101372.09;;;4.41;100.00
54546;BME280;40444;45.184;9.850;2023-01-13T00:38:57;101358.84;;;4.41;100.00
54546;BME280;40444;45.184;9.850;2023-01-13T00:41:26;101360.63;;;4.40;100.00
54546;BME280;40444;45.184;9.850;2023-01-13T00:43:55;101357.03;;;4.41;100.00
54546;BME280;40444;45.184;9.850;2023-01-13T00:46:23;101340.25;;;4.41;100.00
54546;BME280;40444;45.184;9.850;2023-01-13T00:48:52;101341.28;;;4.38;100.00
54546;BME280;40444;45.184;9.850;2023-01-13T00:51:21;101351.91;;;4.38;100.00
54546;BME280;40444;45.184;9.850;2023-01-13T00:53:50;101347.59;;;4.36;100.00
54546;BME280;40444;45.184;9.850;2023-01-13T00:56:21;101346.59;;;4.21;100.00
54546;BME280;40444;45.184;9.850;2023-01-13T00:59:10;101337.78;;;4.03;100.00
54546;BME280;40444;45.184;9.850;2023-01-13T01:01:39;101338.97;;;3.97;100.00
54546;BME280;40444;45.184;9.850;2023-01-13T01:04:08;101327.41;;;3.98;100.00
54546;BME280;40444;45.184;9.850;2023-01-13T01:06:38;101326.09;;;4.07;100.00
54546;BME280;40444;45.184;9.850;2023-01-13T01:09:06;101322.19;;;4.14;100.00
54546;BME280;40444;45.184;9.850;2023-01-13T01:11:35;101324.53;;;4.20;100.00
54546;BME280;40444;45.184;9.850;2023-01-13T01:14:05;101326.94;;;4.25;100.00
54546;BME280;40444;45.184;9.850;2023-01-13T01:16:34;101332.94;;;4.28;100.00
54546;BME280;40444;45.184;9.850;2023-01-13T01:19:02;101325.06;;;4.27;100.00
54546;BME280;40444;45.184;9.850;2023-01-13T01:21:32;101319.91;;;4.24;100.00
54546;BME280;40444;45.184;9.850;2023-01-13T01:24:02;101315.53;;;4.23;100.00
54546;BME280;40444;45.184;9.850;2023-01-13T01:26:31;101317.09;;;4.27;100.00
54546;BME280;40444;45.184;9.850;2023-01-13T01:29:00;101317.81;;;4.30;100.00
54546;BME280;40444;45.184;9.850;2023-01-13T01:31:32;101317.72;;;4.32;100.00
54546;BME280;40444;45.184;9.850;2023-01-13T01:34:01;101316.72;;;4.35;100.00
54546;BME280;40444;45.184;9.850;2023-01-13T01:36:29;101313.13;;;4.36;100.00
54546;BME280;40444;45.184;9.850;2023-01-13T01:38:58;101301.56;;;4.37;100.00
54546;BME280;40444;45.184;9.850;2023-01-13T01:41:30;101300.69;;;4.36;100.00
54546;BME280;40444;45.184;9.850;2023-01-13T01:44:04;101307.03;;;4.34;100.00
54546;BME280;40444;45.184;9.850;2023-01-13T01:46:42;101304.53;;;4.30;100.00
54546;BME280;40444;45.184;9.850;2023-01-13T01:49:18;101297.44;;;4.31;100.00
54546;BME280;40444;45.184;9.850;2023-01-13T01:51:52;101279.00;;;4.28;100.00
54546;BME280;40444;45.184;9.850;2023-01-13T01:54:45;101283.47;;;4.27;100.00
54546;BME280;40444;45.184;9.850;2023-01-13T01:57:22;101282.94;;;4.21;100.00
54546;BME280;40444;45.184;9.850;2023-01-13T01:59:52;101284.19;;;4.14;100.00
54546;BME280;40444;45.184;9.850;2023-01-13T02:02:21;101292.25;;;3.95;100.00
54546;BME280;40444;45.184;9.850;2023-01-13T02:04:52;101298.09;;;3.84;100.00
54546;BME280;40444;45.184;9.850;2023-01-13T02:07:26;101289.72;;;3.74;100.00
54546;BME280;40444;45.184;9.850;2023-01-13T02:09:57;101285.75;;;3.66;100.00
54546;BME280;40444;45.184;9.850;2023-01-13T02:12:27;101276.91;;;3.48;100.00
54546;BME280;40444;45.184;9.850;2023-01-13T02:15:10;101272.00;;;3.40;100.00
54546;BME280;40444;45.184;9.850;2023-01-13T02:20:37;101251.31;;;3.48;100.00
54546;BME280;40444;45.184;9.850;2023-01-13T02:29:57;101250.75;;;3.59;100.00
54546;BME280;40444;45.184;9.850;2023-01-13T02:38:15;101268.19;;;3.46;100.00
54546;BME280;40444;45.184;9.850;2023-01-13T02:40:53;101262.19;;;3.42;100.00
54546;BME280;40444;45.184;9.850;2023-01-13T02:43:35;101255.19;;;3.41;100.00
54546;BME280;40444;45.184;9.850;2023-01-13T02:46:28;101257.91;;;3.40;100.00
54546;BME280;40444;45.184;9.850;2023-01-13T02:49:03;101258.06;;;3.37;100.00
54546;BME280;40444;45.184;9.850;2023-01-13T02:51:34;101248.22;;;3.39;100.00
54546;BME280;40444;45.184;9.850;2023-01-13T02:54:08;101251.66;;;3.41;100.00
54546;BME280;40444;45.184;9.850;2023-01-13T02:56:43;101251.66;;;3.41;100.00
54546;BME280;40444;45.184;9.850;2023-01-13T02:59:14;101250.72;;;3.42;100.00
54546;BME280;40444;45.184;9.850;2023-01-13T03:01:43;101245.53;;;3.40;100.00
54546;BME280;40444;45.184;9.850;2023-01-13T03:04:41;101248.31;;;3.37;100.00
54546;BME280;40444;45.184;9.850;2023-01-13T03:09:56;101242.25;;;3.35;100.00
54546;BME280;40444;45.184;9.850;2023-01-13T03:21:20;101226.19;;;3.38;100.00
54546;BME280;40444;45.184;9.850;2023-01-13T03:24:19;101222.75;;;3.36;100.00
54546;BME280;40444;45.184;9.850;2023-01-13T03:29:49;101231.88;;;3.31;100.00
54546;BME280;40444;45.184;9.850;2023-01-13T03:32:25;101232.00;;;3.27;100.00
54546;BME280;40444;45.184;9.850;2023-01-13T03:35:08;101224.22;;;3.24;100.00
54546;BME280;40444;45.184;9.850;2023-01-13T03:37:44;101229.66;;;3.21;100.00
54546;BME280;40444;45.184;9.850;2023-01-13T03:40:19;101225.47;;;3.17;100.00
54546;BME280;40444;45.184;9.850;2023-01-13T03:42:53;101218.59;;;3.13;100.00
54546;BME280;40444;45.184;9.850;2023-01-13T03:45:42;101227.44;;;3.12;100.00
54546;BME280;40444;45.184;9.850;2023-01-13T03:48:14;101232.06;;;3.09;100.00
54546;BME280;40444;45.184;9.850;2023-01-13T03:50:49;101221.53;;;3.07;100.00
54546;BME280;40444;45.184;9.850;2023-01-13T03:53:31;101226.91;;;3.06;100.00
54546;BME280;40444;45.184;9.850;2023-01-13T03:56:09;101241.94;;;3.05;100.00
54546;BME280;40444;45.184;9.850;2023-01-13T03:58:43;101234.03;;;3.03;100.00
54546;BME280;40444;45.184;9.850;2023-01-13T04:01:37;101239.28;;;3.05;100.00
54546;BME280;40444;45.184;9.850;2023-01-13T04:04:15;101248.16;;;3.04;100.00
54546;BME280;40444;45.184;9.850;2023-01-13T04:06:53;101256.13;;;3.04;100.00
54546;BME280;40444;45.184;9.850;2023-01-13T04:09:51;101251.59;;;3.06;100.00
54546;BME280;40444;45.184;9.850;2023-01-13T04:14:49;101251.91;;;3.00;100.00
54546;BME280;40444;45.184;9.850;2023-01-13T04:17:19;101252.88;;;2.97;100.00
54546;BME280;40444;45.184;9.850;2023-01-13T04:19:48;101247.44;;;3.00;100.00
54546;BME280;40444;45.184;9.850;2023-01-13T04:22:17;101243.16;;;2.98;100.00
54546;BME280;40444;45.184;9.850;2023-01-13T04:24:45;101252.81;;;2.99;100.00
54546;BME280;40444;45.184;9.850;2023-01-13T04:27:13;101252.81;;;2.99;100.00
54546;BME280;40444;45.184;9.850;2023-01-13T04:29:42;101238.56;;;3.01;100.00
54546;BME280;40444;45.184;9.850;2023-01-13T04:32:10;101243.88;;;3.01;100.00
54546;BME280;40444;45.184;9.850;2023-01-13T04:34:38;101236.78;;;3.02;100.00
54546;BME280;40444;45.184;9.850;2023-01-13T04:37:07;101235.84;;;3.03;100.00
54546;BME280;40444;45.184;9.850;2023-01-13T04:39:36;101238.44;;;3.04;100.00
54546;BME280;40444;45.184;9.850;2023-01-13T04:42:04;101245.34;;;3.07;100.00
54546;BME280;40444;45.184;9.850;2023-01-13T04:44:33;101248.94;;;3.06;100.00
54546;BME280;40444;45.184;9.850;2023-01-13T04:47:03;101247.09;;;3.08;100.00
54546;BME280;40444;45.184;9.850;2023-01-13T04:49:31;101238.13;;;3.11;100.00
54546;BME280;40444;45.184;9.850;2023-01-13T04:51:59;101243.34;;;3.12;100.00
54546;BME280;40444;45.184;9.850;2023-01-13T04:54:31;101241.63;;;3.11;100.00
54546;BME280;40444;45.184;9.850;2023-01-13T04:56:59;101247.88;;;3.10;100.00
54546;BME280;40444;45.184;9.850;2023-01-13T04:59:28;101261.88;;;3.12;100.00
54546;BME280;40444;45.184;9.850;2023-01-13T05:01:56;101250.50;;;3.10;100.00
54546;BME280;40444;45.184;9.850;2023-01-13T05:04:24;101248.81;;;3.09;100.00
54546;BME280;40444;45.184;9.850;2023-01-13T05:06:53;101256.81;;;3.08;100.00
54546;BME280;40444;45.184;9.850;2023-01-13T05:09:21;101252.53;;;3.05;100.00
54546;BME280;40444;45.184;9.850;2023-01-13T05:11:50;101250.81;;;3.04;100.00
54546;BME280;40444;45.184;9.850;2023-01-13T05:14:37;101254.53;;;3.00;100.00
54546;BME280;40444;45.184;9.850;2023-01-13T05:17:24;101240.72;;;2.93;100.00
54546;BME280;40444;45.184;9.850;2023-01-13T05:19:52;101235.59;;;2.90;100.00
54546;BME280;40444;45.184;9.850;2023-01-13T05:22:21;101235.72;;;2.87;100.00
54546;BME280;40444;45.184;9.850;2023-01-13T05:25:09;101232.16;;;2.88;100.00
54546;BME280;40444;45.184;9.850;2023-01-13T05:27:52;101240.09;;;2.88;100.00
54546;BME280;40444;45.184;9.850;2023-01-13T05:30:24;101255.03;;;2.89;100.00
54546;BME280;40444;45.184;9.850;2023-01-13T05:32:53;101242.72;;;2.88;100.00
54546;BME280;40444;45.184;9.850;2023-01-13T05:35:22;101248.16;;;2.85;100.00
54546;BME280;40444;45.184;9.850;2023-01-13T05:37:50;101264.22;;;2.82;100.00
54546;BME280;40444;45.184;9.850;2023-01-13T05:40:18;101266.13;;;2.78;100.00
54546;BME280;40444;45.184;9.850;2023-01-13T05:43:13;101266.13;;;2.78;100.00
54546;BME280;40444;45.184;9.850;2023-01-13T05:45:57;101268.69;;;2.80;100.00
